createdAt,value
2022-08-21T00:02:18.599Z,6.20
2022-08-21T00:04:56.901Z,6.10
2022-08-21T00:07:29.416Z,6.90
2022-08-21T00:10:01.155Z,6.30
2022-08-21T00:12:33.150Z,7.70
2022-08-21T00:15:04.805Z,6.50
2022-08-21T00:17:40.338Z,5.50
2022-08-21T00:20:13.738Z,6.80
2022-08-21T00:22:45.566Z,7.00
2022-08-21T00:27:47.797Z,6.80
2022-08-21T00:30:23.131Z,7.10
2022-08-21T00:32:55.878Z,6.00
2022-08-21T00:35:29.753Z,6.70
2022-08-21T00:38:01.422Z,7.30
2022-08-21T00:43:05.252Z,7.20
2022-08-21T00:45:36.864Z,6.70
2022-08-21T00:50:40.739Z,6.10
2022-08-21T00:53:12.664Z,8.10
2022-08-21T00:55:44.272Z,6.00
2022-08-21T00:58:17.487Z,7.10
2022-08-21T01:00:51.343Z,6.90
2022-08-21T01:03:24.204Z,7.50
2022-08-21T01:05:55.787Z,6.70
2022-08-21T01:10:57.680Z,6.90
2022-08-21T01:13:31.843Z,6.80
2022-08-21T01:16:04.852Z,6.50
2022-08-21T01:18:37.580Z,6.80
2022-08-21T01:21:14.993Z,6.00
2022-08-21T01:23:47.665Z,6.10
2022-08-21T01:26:21.660Z,5.50
2022-08-21T01:28:56.844Z,6.90
2022-08-21T01:31:29.276Z,5.30
2022-08-21T01:34:01.086Z,6.60
2022-08-21T01:39:04.045Z,5.60
2022-08-21T01:41:35.892Z,7.20
2022-08-21T01:44:07.875Z,6.70
2022-08-21T01:46:39.439Z,6.90
2022-08-21T01:51:41.591Z,5.60
2022-08-21T01:54:13.580Z,6.30
2022-08-21T01:59:16.617Z,7.00
2022-08-21T02:04:18.349Z,6.60
2022-08-21T02:06:50.245Z,6.70
2022-08-21T02:09:22.888Z,7.90
2022-08-21T02:11:56.144Z,6.30
2022-08-21T02:17:08.937Z,6.70
2022-08-21T02:19:41.309Z,6.70
2022-08-21T02:22:13.217Z,5.50
2022-08-21T02:24:54.027Z,7.00
2022-08-21T02:27:27.652Z,5.90
2022-08-21T02:30:00.052Z,7.60
2022-08-21T02:32:32.473Z,6.30
2022-08-21T02:35:04.224Z,6.90
2022-08-21T02:40:06.838Z,6.40
2022-08-21T02:42:38.590Z,6.60
2022-08-21T02:47:40.619Z,7.00
2022-08-21T02:50:12.812Z,6.50
2022-08-21T02:52:44.496Z,6.60
2022-08-21T02:57:46.679Z,7.70
2022-08-21T03:00:19.070Z,6.60
2022-08-21T03:02:50.981Z,7.30
2022-08-21T03:05:22.783Z,6.70
2022-08-21T03:07:54.551Z,7.30
2022-08-21T03:12:56.596Z,6.10
2022-08-21T03:15:28.713Z,6.60
2022-08-21T03:18:00.517Z,6.80
2022-08-21T03:20:33.786Z,6.20
2022-08-21T03:23:12.483Z,7.30
2022-08-21T03:25:46.531Z,6.00
2022-08-21T03:28:20.573Z,6.90
2022-08-21T03:30:53.225Z,6.10
2022-08-21T03:33:25.358Z,6.60
2022-08-21T03:36:02.658Z,6.10
2022-08-21T03:38:34.921Z,7.10
2022-08-21T03:41:08.142Z,6.90
2022-08-21T03:43:40.026Z,6.80
2022-08-21T03:46:12.129Z,6.90
2022-08-21T03:48:43.903Z,7.30
2022-08-21T03:51:16.853Z,7.40
2022-08-21T03:53:48.601Z,7.10
2022-08-21T03:56:20.676Z,7.40
2022-08-21T03:58:52.370Z,5.80
2022-08-21T04:03:54.086Z,6.90
2022-08-21T04:08:55.926Z,5.70
2022-08-21T04:11:27.847Z,7.40
2022-08-21T04:13:59.326Z,7.10
2022-08-21T04:16:32.129Z,6.30
2022-08-21T04:19:04.883Z,7.60
2022-08-21T04:21:36.403Z,6.30
2022-08-21T04:24:08.634Z,6.40
2022-08-21T04:26:40.395Z,7.20
2022-08-21T04:29:12.646Z,6.60
2022-08-21T04:31:44.878Z,8.60
2022-08-21T04:34:16.315Z,7.60
2022-08-21T04:36:47.910Z,6.80
2022-08-21T04:39:19.422Z,7.40
2022-08-21T04:41:50.940Z,7.30
2022-08-21T04:44:22.461Z,8.30
2022-08-21T04:46:54.024Z,6.70
2022-08-21T04:49:25.619Z,7.50
2022-08-21T04:52:07.656Z,7.10
2022-08-21T04:54:39.217Z,7.90
2022-08-21T04:57:12.296Z,7.10
2022-08-21T04:59:45.691Z,7.10
2022-08-21T05:02:17.187Z,7.80
2022-08-21T05:04:52.576Z,7.30
2022-08-21T05:07:41.883Z,6.60
2022-08-21T05:10:15.237Z,7.80
2022-08-21T05:12:46.856Z,6.10
2022-08-21T05:17:53.619Z,8.60
2022-08-21T05:20:32.643Z,8.20
2022-08-21T05:23:04.289Z,7.60
2022-08-21T05:28:07.021Z,7.50
2022-08-21T05:30:40.280Z,7.90
2022-08-21T05:33:11.856Z,6.90
2022-08-21T05:38:16.715Z,7.70
2022-08-21T05:40:50.658Z,9.70
2022-08-21T05:43:22.192Z,7.80
2022-08-21T05:45:53.839Z,7.90
2022-08-21T05:48:26.903Z,8.20
2022-08-21T05:50:58.719Z,8.80
2022-08-21T05:53:30.358Z,7.50
2022-08-21T05:58:32.024Z,7.50
2022-08-21T06:03:35.191Z,7.30
2022-08-21T06:06:07.329Z,9.60
2022-08-21T06:08:39.364Z,8.40
2022-08-21T06:11:11.188Z,8.50
2022-08-21T06:13:43.290Z,8.30
2022-08-21T06:16:16.822Z,10.40
2022-08-21T06:18:48.371Z,10.20
2022-08-21T06:21:20.142Z,9.80
2022-08-21T06:23:51.707Z,10.80
2022-08-21T06:26:23.667Z,12.20
2022-08-21T06:28:55.542Z,10.90
2022-08-21T06:31:28.687Z,10.20
2022-08-21T06:34:00.326Z,10.40
2022-08-21T06:36:31.918Z,11.90
2022-08-21T06:39:03.641Z,15.30
2022-08-21T06:41:48.717Z,13.20
2022-08-21T06:46:51.602Z,24.10
2022-08-21T06:51:53.980Z,21.70
2022-08-21T06:54:25.693Z,17.50
2022-08-21T06:56:57.502Z,17.90
2022-08-21T06:59:29.212Z,19.20
2022-08-21T07:02:00.835Z,18.20
2022-08-21T07:04:32.893Z,16.90
2022-08-21T07:07:04.805Z,20.00
2022-08-21T07:12:07.744Z,24.60
2022-08-21T07:14:39.341Z,24.50
2022-08-21T07:17:10.936Z,22.80
2022-08-21T07:22:12.486Z,21.40
2022-08-21T07:27:14.139Z,20.90
2022-08-21T07:29:47.425Z,22.60
2022-08-21T07:32:21.358Z,20.40
2022-08-21T07:34:53.223Z,20.90
2022-08-21T07:37:25.602Z,21.00
2022-08-21T07:39:57.814Z,18.40
2022-08-21T07:42:29.530Z,17.90
2022-08-21T07:47:42.433Z,16.60
2022-08-21T07:50:14.457Z,18.60
2022-08-21T07:55:17.915Z,13.90
2022-08-21T07:57:50.674Z,15.50
2022-08-21T08:00:23.878Z,15.50
2022-08-21T08:02:55.902Z,16.30
2022-08-21T08:05:29.657Z,16.50
2022-08-21T08:08:01.272Z,14.90
2022-08-21T08:13:03.194Z,12.40
2022-08-21T08:15:37.617Z,14.60
2022-08-21T08:18:09.846Z,17.20
2022-08-21T08:20:41.957Z,15.90
2022-08-21T08:23:15.552Z,15.60
2022-08-21T08:25:47.820Z,13.30
2022-08-21T08:28:19.634Z,14.50
2022-08-21T08:30:51.641Z,13.90
2022-08-21T08:33:23.855Z,14.20
2022-08-21T08:35:55.593Z,14.50
2022-08-21T08:38:28.092Z,15.50
2022-08-21T08:41:05.202Z,14.90
2022-08-21T08:43:36.879Z,13.90
2022-08-21T08:46:13.287Z,15.40
2022-08-21T08:48:53.613Z,15.20
2022-08-21T08:51:27.370Z,15.00
2022-08-21T08:54:01.306Z,14.80
2022-08-21T08:56:34.795Z,13.20
2022-08-21T08:59:12.598Z,14.00
2022-08-21T09:01:44.965Z,14.50
2022-08-21T09:04:16.699Z,12.50
2022-08-21T09:07:07.989Z,13.80
2022-08-21T09:09:46.059Z,19.90
2022-08-21T09:12:21.926Z,17.90
2022-08-21T09:15:01.340Z,12.10
2022-08-21T09:17:47.388Z,11.40
2022-08-21T09:20:24.845Z,14.10
2022-08-21T09:23:03.178Z,13.30
2022-08-21T09:25:36.000Z,10.60
2022-08-21T09:28:07.966Z,12.00
2022-08-21T09:30:40.576Z,11.40
2022-08-21T09:33:14.263Z,13.50
2022-08-21T09:35:55.421Z,11.00
2022-08-21T09:38:32.908Z,10.60
2022-08-21T09:41:06.226Z,9.30
2022-08-21T09:43:37.847Z,9.60
2022-08-21T09:46:12.434Z,11.70
2022-08-21T09:48:49.110Z,10.20
2022-08-21T09:51:25.681Z,10.50
2022-08-21T09:53:59.659Z,9.40
2022-08-21T09:56:51.977Z,9.30
2022-08-21T09:59:36.405Z,10.10
2022-08-21T10:02:27.520Z,8.80
2022-08-21T10:05:00.411Z,7.50
2022-08-21T10:07:33.195Z,8.20
2022-08-21T10:10:07.094Z,7.50
2022-08-21T10:12:44.479Z,6.90
2022-08-21T10:15:20.644Z,6.80
2022-08-21T10:18:03.905Z,7.50
2022-08-21T10:20:39.991Z,7.20
2022-08-21T10:23:21.942Z,7.40
2022-08-21T10:25:57.076Z,7.80
2022-08-21T10:28:49.738Z,6.40
2022-08-21T10:31:23.563Z,6.80
2022-08-21T10:34:00.628Z,7.30
2022-08-21T10:36:36.920Z,6.40
2022-08-21T10:39:35.542Z,6.60
2022-08-21T10:42:15.014Z,7.80
2022-08-21T10:44:52.103Z,6.20
2022-08-21T10:47:26.554Z,6.50
2022-08-21T10:50:00.732Z,7.30
2022-08-21T10:52:54.683Z,7.40
2022-08-21T10:55:29.477Z,7.10
2022-08-21T10:58:02.025Z,4.60
2022-08-21T11:00:36.419Z,7.30
2022-08-21T11:03:09.883Z,7.90
2022-08-21T11:05:46.504Z,59.00
2022-08-21T11:08:24.268Z,10.30
2022-08-21T11:11:00.241Z,8.00
2022-08-21T11:13:41.594Z,8.30
2022-08-21T11:16:22.000Z,28.80
2022-08-21T11:18:56.306Z,16.50
2022-08-21T11:21:34.863Z,8.70
2022-08-21T11:24:11.292Z,8.00
2022-08-21T11:26:46.297Z,8.40
2022-08-21T11:29:26.153Z,5.50
2022-08-21T11:32:06.320Z,6.20
2022-08-21T11:34:45.158Z,5.10
2022-08-21T11:37:20.205Z,5.10
2022-08-21T11:39:55.884Z,6.30
2022-08-21T11:42:31.137Z,5.80
2022-08-21T11:45:11.979Z,4.80
2022-08-21T11:47:53.969Z,6.90
2022-08-21T11:50:34.442Z,5.70
2022-08-21T11:53:10.621Z,5.20
2022-08-21T11:55:43.944Z,5.70
2022-08-21T11:58:16.976Z,4.10
2022-08-21T12:00:50.619Z,4.10
2022-08-21T12:03:38.397Z,4.70
2022-08-21T12:06:14.410Z,4.70
2022-08-21T12:09:03.149Z,4.80
2022-08-21T12:11:34.776Z,4.20
2022-08-21T12:14:16.784Z,4.80
2022-08-21T12:16:50.201Z,5.80
2022-08-21T12:19:33.923Z,5.20
2022-08-21T12:22:12.940Z,5.40
2022-08-21T12:24:45.536Z,6.90
2022-08-21T12:27:32.707Z,6.20
2022-08-21T12:30:06.003Z,6.80
2022-08-21T12:32:56.081Z,6.30
2022-08-21T12:35:30.831Z,6.40
2022-08-21T12:38:05.145Z,8.10
2022-08-21T12:40:41.620Z,8.20
2022-08-21T12:43:17.324Z,6.30
2022-08-21T12:45:50.614Z,5.00
2022-08-21T12:48:28.482Z,5.00
2022-08-21T12:51:02.014Z,5.90
2022-08-21T12:53:36.442Z,5.20
2022-08-21T12:56:10.621Z,5.10
2022-08-21T12:58:44.214Z,5.10
2022-08-21T13:01:22.280Z,6.00
2022-08-21T13:03:57.304Z,5.50
2022-08-21T13:06:43.151Z,5.20
2022-08-21T13:09:16.393Z,5.80
2022-08-21T13:11:49.807Z,5.50
2022-08-21T13:14:27.409Z,4.20
2022-08-21T13:16:59.842Z,4.70
2022-08-21T13:19:32.770Z,5.90
2022-08-21T13:22:04.723Z,4.40
2022-08-21T13:24:56.111Z,5.20
2022-08-21T13:27:29.590Z,3.80
2022-08-21T13:30:13.253Z,3.90
2022-08-21T13:32:47.327Z,7.70
2022-08-21T13:35:20.964Z,6.40
2022-08-21T13:37:53.487Z,6.20
2022-08-21T13:40:28.827Z,6.20
2022-08-21T13:43:00.593Z,6.00
2022-08-21T13:45:36.852Z,5.20
2022-08-21T13:48:08.742Z,4.50
2022-08-21T13:50:40.808Z,4.30
2022-08-21T13:53:24.265Z,3.90
2022-08-21T13:56:00.426Z,4.20
2022-08-21T13:58:34.212Z,3.30
2022-08-21T14:01:06.850Z,3.70
2022-08-21T14:03:41.195Z,4.30
2022-08-21T14:06:20.599Z,4.20
2022-08-21T14:08:54.188Z,4.60
2022-08-21T14:11:25.801Z,4.60
2022-08-21T14:14:01.593Z,4.40
2022-08-21T14:16:48.888Z,3.90
2022-08-21T14:19:25.913Z,3.90
2022-08-21T14:21:57.613Z,4.70
2022-08-21T14:24:36.582Z,4.10
2022-08-21T14:27:09.494Z,3.90
2022-08-21T14:29:42.033Z,4.50
2022-08-21T14:32:21.459Z,5.00
2022-08-21T14:34:54.499Z,4.40
2022-08-21T14:37:26.715Z,4.40
2022-08-21T14:39:59.103Z,4.50
2022-08-21T14:42:30.955Z,5.50
2022-08-21T14:45:13.342Z,4.70
2022-08-21T14:47:45.135Z,4.90
2022-08-21T14:50:17.099Z,3.90
2022-08-21T14:52:48.620Z,4.30
2022-08-21T14:55:21.699Z,4.80
2022-08-21T14:57:54.656Z,4.40
2022-08-21T15:00:36.047Z,4.40
2022-08-21T15:03:07.996Z,5.60
2022-08-21T15:05:39.668Z,4.30
2022-08-21T15:08:11.357Z,5.90
2022-08-21T15:11:08.249Z,6.90
2022-08-21T15:16:11.729Z,5.30
2022-08-21T15:18:44.266Z,4.30
2022-08-21T15:21:16.385Z,4.80
2022-08-21T15:23:47.848Z,6.40
2022-08-21T15:26:19.330Z,8.20
2022-08-21T15:28:51.412Z,6.80
2022-08-21T15:31:23.139Z,6.80
2022-08-21T15:33:54.672Z,7.70
2022-08-21T15:36:26.932Z,9.40
2022-08-21T15:38:58.580Z,10.50
2022-08-21T15:41:30.456Z,10.90
2022-08-21T15:44:02.051Z,10.20
2022-08-21T15:46:33.712Z,8.00
2022-08-21T15:49:05.473Z,7.70
2022-08-21T15:51:37.687Z,9.00
2022-08-21T15:54:15.462Z,9.60
2022-08-21T15:56:48.874Z,10.40
2022-08-21T15:59:23.869Z,9.90
2022-08-21T16:01:55.542Z,7.90
2022-08-21T16:04:28.499Z,8.50
2022-08-21T16:07:05.367Z,7.80
2022-08-21T16:09:39.350Z,8.20
2022-08-21T16:12:11.881Z,8.20
2022-08-21T16:14:43.687Z,7.80
2022-08-21T16:17:15.437Z,6.20
2022-08-21T16:19:47.627Z,5.50
2022-08-21T16:22:19.713Z,6.10
2022-08-21T16:24:51.389Z,6.20
2022-08-21T16:27:23.387Z,6.40
2022-08-21T16:29:59.164Z,4.70
2022-08-21T16:32:31.350Z,5.60
2022-08-21T16:35:02.900Z,4.00
2022-08-21T16:37:34.796Z,4.10
2022-08-21T16:42:37.761Z,4.60
2022-08-21T16:45:11.932Z,4.30
2022-08-21T16:47:45.015Z,4.50
2022-08-21T16:50:19.260Z,4.00
2022-08-21T16:52:51.159Z,3.90
2022-08-21T16:55:22.721Z,3.60
2022-08-21T17:00:24.416Z,4.10
2022-08-21T17:02:56.811Z,4.50
2022-08-21T17:05:28.531Z,3.60
2022-08-21T17:08:00.121Z,3.90
2022-08-21T17:13:05.181Z,4.00
2022-08-21T17:15:39.643Z,4.20
2022-08-21T17:18:12.341Z,4.40
2022-08-21T17:20:43.884Z,4.00
2022-08-21T17:25:48.245Z,4.40
2022-08-21T17:28:23.879Z,4.50
2022-08-21T17:30:56.076Z,4.40
2022-08-21T17:33:29.426Z,4.40
2022-08-21T17:36:02.065Z,4.70
2022-08-21T17:38:33.843Z,4.60
2022-08-21T17:41:06.573Z,5.20
2022-08-21T17:43:38.271Z,3.80
2022-08-21T17:46:09.760Z,5.10
2022-08-21T17:51:12.101Z,4.90
2022-08-21T17:53:45.289Z,4.70
2022-08-21T17:56:17.674Z,5.30
2022-08-21T17:58:50.656Z,4.80
2022-08-21T18:01:22.610Z,4.30
2022-08-21T18:03:54.318Z,4.60
2022-08-21T18:06:25.932Z,4.40
2022-08-21T18:11:29.513Z,3.80
2022-08-21T18:14:06.744Z,4.20
2022-08-21T18:16:39.411Z,4.60
2022-08-21T18:19:15.748Z,4.80
2022-08-21T18:21:47.429Z,4.20
2022-08-21T18:24:19.239Z,4.80
2022-08-21T18:26:51.187Z,4.40
2022-08-21T18:29:23.156Z,3.70
2022-08-21T18:31:54.586Z,5.00
2022-08-21T18:34:28.281Z,4.20
2022-08-21T18:36:59.936Z,5.00
2022-08-21T18:42:15.337Z,3.30
2022-08-21T18:44:47.799Z,3.60
2022-08-21T18:47:22.530Z,3.40
2022-08-21T18:49:54.175Z,3.30
2022-08-21T18:55:17.050Z,3.70
2022-08-21T18:57:48.680Z,3.80
2022-08-21T19:00:21.912Z,3.30
2022-08-21T19:02:53.507Z,3.30
2022-08-21T19:07:55.479Z,3.70
2022-08-21T19:10:29.559Z,3.50
2022-08-21T19:13:04.315Z,4.10
2022-08-21T19:15:39.571Z,3.50
2022-08-21T19:18:11.943Z,4.00
2022-08-21T19:20:44.750Z,4.30
2022-08-21T19:23:19.312Z,3.50
2022-08-21T19:26:02.312Z,4.30
2022-08-21T19:28:36.455Z,3.20
2022-08-21T19:31:11.090Z,3.70
2022-08-21T19:33:44.369Z,3.80
2022-08-21T19:36:16.274Z,3.10
2022-08-21T19:38:48.519Z,3.60
2022-08-21T19:41:21.400Z,4.30
2022-08-21T19:43:55.147Z,3.20
2022-08-21T19:46:30.740Z,4.20
2022-08-21T19:49:02.484Z,3.20
2022-08-21T19:51:34.137Z,3.80
2022-08-21T19:56:35.800Z,3.20
2022-08-21T19:59:09.512Z,3.30
2022-08-21T20:01:41.733Z,3.80
2022-08-21T20:04:19.278Z,3.80
2022-08-21T20:06:51.413Z,3.70
2022-08-21T20:09:24.483Z,5.10
2022-08-21T20:11:56.998Z,3.00
2022-08-21T20:14:30.517Z,3.80
2022-08-21T20:17:03.662Z,3.70
2022-08-21T20:19:35.210Z,3.50
2022-08-21T20:22:07.577Z,3.60
2022-08-21T20:24:42.585Z,4.70
2022-08-21T20:27:18.076Z,4.50
2022-08-21T20:29:51.876Z,4.00
2022-08-21T20:34:55.091Z,4.50
2022-08-21T20:37:36.383Z,4.30
2022-08-21T20:40:20.838Z,3.50
2022-08-21T20:42:54.577Z,4.30
2022-08-21T20:45:27.456Z,3.80
2022-08-21T20:48:07.980Z,3.60
2022-08-21T20:50:42.135Z,4.00
2022-08-21T20:53:19.996Z,3.30
2022-08-21T20:55:51.771Z,3.20
2022-08-21T20:58:31.313Z,3.90
2022-08-21T21:01:04.891Z,4.40
2022-08-21T21:03:38.922Z,4.20
2022-08-21T21:06:15.456Z,4.30
2022-08-21T21:08:49.136Z,3.90
2022-08-21T21:11:22.966Z,4.50
2022-08-21T21:13:55.265Z,4.50
2022-08-21T21:16:29.540Z,3.90
2022-08-21T21:19:03.593Z,3.60
2022-08-21T21:21:37.101Z,4.30
2022-08-21T21:24:11.130Z,3.70
2022-08-21T21:26:46.307Z,4.50
2022-08-21T21:29:22.856Z,4.20
2022-08-21T21:31:55.902Z,4.80
2022-08-21T21:34:28.155Z,4.30
2022-08-21T21:37:02.152Z,4.80
2022-08-21T21:39:36.420Z,6.20
2022-08-21T21:42:13.894Z,5.10
2022-08-21T21:45:05.053Z,5.40
2022-08-21T21:47:41.917Z,6.30
2022-08-21T21:50:22.871Z,6.30
2022-08-21T21:53:04.157Z,6.70
2022-08-21T21:56:02.034Z,6.60
2022-08-21T21:58:41.559Z,7.50
2022-08-21T22:01:18.580Z,9.00
2022-08-21T22:03:54.504Z,10.60
2022-08-21T22:06:32.553Z,9.00
2022-08-21T22:09:09.378Z,11.50
2022-08-21T22:11:55.335Z,12.70
2022-08-21T22:14:31.002Z,10.60
2022-08-21T22:17:03.640Z,10.00
2022-08-21T22:19:37.684Z,11.70
2022-08-21T22:22:12.816Z,15.80
2022-08-21T22:24:47.771Z,14.30
2022-08-21T22:27:22.336Z,15.40
2022-08-21T22:29:54.841Z,17.40
2022-08-21T22:32:30.200Z,15.60
2022-08-21T22:35:12.410Z,16.10
2022-08-21T22:37:46.032Z,14.00
2022-08-21T22:40:26.381Z,13.80
2022-08-21T22:43:07.351Z,14.80
2022-08-21T22:46:02.683Z,12.00
2022-08-21T22:48:36.364Z,11.60
2022-08-21T22:51:11.985Z,12.20
2022-08-21T22:53:45.460Z,14.50
2022-08-21T22:56:31.792Z,12.60
2022-08-21T22:59:05.437Z,13.50
2022-08-21T23:01:44.416Z,12.70
2022-08-21T23:04:21.032Z,14.00
2022-08-21T23:06:55.508Z,14.10
2022-08-21T23:09:33.154Z,13.50
2022-08-21T23:12:21.276Z,14.80
2022-08-21T23:15:00.417Z,16.60
2022-08-21T23:17:37.090Z,17.00
2022-08-21T23:20:12.312Z,17.10
2022-08-21T23:22:47.467Z,21.00
2022-08-21T23:25:30.920Z,21.80
2022-08-21T23:28:06.163Z,22.40
2022-08-21T23:30:43.528Z,26.20
2022-08-21T23:33:26.200Z,33.30
2022-08-21T23:36:19.813Z,32.30
2022-08-21T23:39:05.330Z,35.00
2022-08-21T23:41:40.564Z,32.70
2022-08-21T23:44:21.161Z,34.80
2022-08-21T23:47:01.825Z,29.60
2022-08-21T23:49:53.825Z,22.60
2022-08-21T23:52:33.477Z,21.70
2022-08-21T23:55:17.357Z,19.20
2022-08-21T23:57:58.019Z,18.10
